sensor_id;sensor_type;location;lat;lon;timestamp;temperature;humidity
29687;DHT22;16599;47.078;15.536;2022-12-29T00:02:18;-2.20;99.90
29687;DHT22;16599;47.078;15.536;2022-12-29T00:04:45;-2.20;99.90
29687;DHT22;16599;47.078;15.536;2022-12-29T00:07:12;-2.10;99.90
29687;DHT22;16599;47.078;15.536;2022-12-29T00:09:39;-2.00;99.90
29687;DHT22;16599;47.078;15.536;2022-12-29T00:12:06;-1.80;99.90
29687;DHT22;16599;47.078;15.536;2022-12-29T00:14:32;-1.90;99.90
29687;DHT22;16599;47.078;15.536;2022-12-29T00:17:18;-2.00;99.90
29687;DHT22;16599;47.078;15.536;2022-12-29T00:19:45;-2.10;99.90
29687;DHT22;16599;47.078;15.536;2022-12-29T00:22:30;-2.60;99.90
29687;DHT22;16599;47.078;15.536;2022-12-29T00:25:15;-2.70;99.90
29687;DHT22;16599;47.078;15.536;2022-12-29T00:28:01;-2.60;99.90
29687;DHT22;16599;47.078;15.536;2022-12-29T00:30:46;-2.40;99.90
29687;DHT22;16599;47.078;15.536;2022-12-29T00:33:33;-2.30;99.90
29687;DHT22;16599;47.078;15.536;2022-12-29T00:36:29;-2.40;99.90
29687;DHT22;16599;47.078;15.536;2022-12-29T00:39:12;-2.80;99.90
29687;DHT22;16599;47.078;15.536;2022-12-29T00:42:03;-2.60;99.90
29687;DHT22;16599;47.078;15.536;2022-12-29T00:45:06;-3.00;99.90
29687;DHT22;16599;47.078;15.536;2022-12-29T00:47:33;-3.00;99.90
29687;DHT22;16599;47.078;15.536;2022-12-29T00:49:59;-3.10;99.90
29687;DHT22;16599;47.078;15.536;2022-12-29T00:52:26;-3.10;99.90
29687;DHT22;16599;47.078;15.536;2022-12-29T00:54:53;-3.00;99.90
29687;DHT22;16599;47.078;15.536;2022-12-29T00:57:20;-2.80;99.90
29687;DHT22;16599;47.078;15.536;2022-12-29T00:59:46;-2.60;99.90
29687;DHT22;16599;47.078;15.536;2022-12-29T01:02:13;-2.90;99.90
29687;DHT22;16599;47.078;15.536;2022-12-29T01:04:40;-2.80;99.90
29687;DHT22;16599;47.078;15.536;2022-12-29T01:07:07;-2.70;99.90
29687;DHT22;16599;47.078;15.536;2022-12-29T01:09:34;-2.50;99.90
29687;DHT22;16599;47.078;15.536;2022-12-29T01:12:20;-2.70;99.90
29687;DHT22;16599;47.078;15.536;2022-12-29T01:15:09;-2.80;99.90
29687;DHT22;16599;47.078;15.536;2022-12-29T01:17:36;-2.70;99.90
29687;DHT22;16599;47.078;15.536;2022-12-29T01:20:03;-2.50;99.90
29687;DHT22;16599;47.078;15.536;2022-12-29T01:22:30;-2.80;99.90
29687;DHT22;16599;47.078;15.536;2022-12-29T01:24:57;-2.80;99.90
29687;DHT22;16599;47.078;15.536;2022-12-29T01:27:24;-3.10;99.90
29687;DHT22;16599;47.078;15.536;2022-12-29T01:29:50;-3.30;99.90
29687;DHT22;16599;47.078;15.536;2022-12-29T01:32:17;-3.30;99.90
29687;DHT22;16599;47.078;15.536;2022-12-29T01:34:44;-3.20;99.90
29687;DHT22;16599;47.078;15.536;2022-12-29T01:37:11;-3.10;99.90
29687;DHT22;16599;47.078;15.536;2022-12-29T01:39:39;-2.90;99.90
29687;DHT22;16599;47.078;15.536;2022-12-29T01:42:19;-2.90;99.90
29687;DHT22;16599;47.078;15.536;2022-12-29T01:44:57;-3.40;99.90
29687;DHT22;16599;47.078;15.536;2022-12-29T01:47:41;-3.30;99.90
29687;DHT22;16599;47.078;15.536;2022-12-29T01:50:14;-3.10;99.90
29687;DHT22;16599;47.078;15.536;2022-12-29T01:52:59;-3.20;99.90
29687;DHT22;16599;47.078;15.536;2022-12-29T01:55:29;-3.20;99.90
29687;DHT22;16599;47.078;15.536;2022-12-29T01:57:59;-3.10;99.90
29687;DHT22;16599;47.078;15.536;2022-12-29T02:00:27;-3.10;99.90
29687;DHT22;16599;47.078;15.536;2022-12-29T02:02:54;-3.30;99.90
29687;DHT22;16599;47.078;15.536;2022-12-29T02:05:40;-3.20;99.90
29687;DHT22;16599;47.078;15.536;2022-12-29T02:08:09;-3.00;99.90
29687;DHT22;16599;47.078;15.536;2022-12-29T02:10:36;-2.80;99.90
29687;DHT22;16599;47.078;15.536;2022-12-29T02:13:04;-3.00;99.90
29687;DHT22;16599;47.078;15.536;2022-12-29T02:24:12;-3.30;99.90
29687;DHT22;16599;47.078;15.536;2022-12-29T02:32:05;-3.00;99.90
29687;DHT22;16599;47.078;15.536;2022-12-29T02:34:39;-3.40;99.90
29687;DHT22;16599;47.078;15.536;2022-12-29T02:37:34;-3.30;99.90
29687;DHT22;16599;47.078;15.536;2022-12-29T02:45:51;-3.10;99.90
29687;DHT22;16599;47.078;15.536;2022-12-29T02:48:23;-3.30;99.90
29687;DHT22;16599;47.078;15.536;2022-12-29T02:51:06;-3.50;99.90
29687;DHT22;16599;47.078;15.536;2022-12-29T02:53:36;-3.40;99.90
29687;DHT22;16599;47.078;15.536;2022-12-29T02:56:21;-3.60;99.90
29687;DHT22;16599;47.078;15.536;2022-12-29T02:58:48;-3.60;99.90
29687;DHT22;16599;47.078;15.536;2022-12-29T03:04:25;-3.30;99.90
29687;DHT22;16599;47.078;15.536;2022-12-29T03:07:20;-3.40;99.90
29687;DHT22;16599;47.078;15.536;2022-12-29T03:09:52;-3.30;99.90
29687;DHT22;16599;47.078;15.536;2022-12-29T03:12:34;-3.40;99.90
29687;DHT22;16599;47.078;15.536;2022-12-29T03:15:35;-3.30;99.90
29687;DHT22;16599;47.078;15.536;2022-12-29T03:21:17;-3.30;99.90
29687;DHT22;16599;47.078;15.536;2022-12-29T03:23:46;-3.30;99.90
29687;DHT22;16599;47.078;15.536;2022-12-29T03:26:16;-3.20;99.90
29687;DHT22;16599;47.078;15.536;2022-12-29T03:28:51;-3.20;99.90
29687;DHT22;16599;47.078;15.536;2022-12-29T03:31:20;-3.10;99.90
29687;DHT22;16599;47.078;15.536;2022-12-29T03:33:50;-3.00;99.90
29687;DHT22;16599;47.078;15.536;2022-12-29T03:36:28;-3.00;99.90
29687;DHT22;16599;47.078;15.536;2022-12-29T03:39:02;-2.80;99.90
29687;DHT22;16599;47.078;15.536;2022-12-29T03:41:31;-2.70;99.90
29687;DHT22;16599;47.078;15.536;2022-12-29T03:44:00;-2.80;99.90
29687;DHT22;16599;47.078;15.536;2022-12-29T03:46:26;-3.20;99.90
29687;DHT22;16599;47.078;15.536;2022-12-29T03:48:53;-3.20;99.90
29687;DHT22;16599;47.078;15.536;2022-12-29T03:51:20;-3.20;99.90
29687;DHT22;16599;47.078;15.536;2022-12-29T03:53:47;-3.20;99.90
29687;DHT22;16599;47.078;15.536;2022-12-29T03:56:14;-3.10;99.90
29687;DHT22;16599;47.078;15.536;2022-12-29T03:58:40;-3.00;99.90
29687;DHT22;16599;47.078;15.536;2022-12-29T04:01:07;-3.10;99.90
29687;DHT22;16599;47.078;15.536;2022-12-29T04:03:34;-3.20;99.90
29687;DHT22;16599;47.078;15.536;2022-12-29T04:06:01;-3.20;99.90
29687;DHT22;16599;47.078;15.536;2022-12-29T04:08:28;-3.00;99.90
29687;DHT22;16599;47.078;15.536;2022-12-29T04:10:55;-2.90;99.90
29687;DHT22;16599;47.078;15.536;2022-12-29T04:13:21;-3.10;99.90
29687;DHT22;16599;47.078;15.536;2022-12-29T04:15:50;-3.60;99.90
29687;DHT22;16599;47.078;15.536;2022-12-29T04:18:17;-3.60;99.90
29687;DHT22;16599;47.078;15.536;2022-12-29T04:20:44;-3.50;99.90
29687;DHT22;16599;47.078;15.536;2022-12-29T04:23:27;-3.30;99.90
29687;DHT22;16599;47.078;15.536;2022-12-29T04:25:54;-3.40;99.90
29687;DHT22;16599;47.078;15.536;2022-12-29T04:28:21;-3.60;99.90
29687;DHT22;16599;47.078;15.536;2022-12-29T04:30:48;-3.40;99.90
29687;DHT22;16599;47.078;15.536;2022-12-29T04:33:15;-3.30;99.90
29687;DHT22;16599;47.078;15.536;2022-12-29T04:35:44;-3.70;99.90
29687;DHT22;16599;47.078;15.536;2022-12-29T04:38:12;-3.60;99.90
29687;DHT22;16599;47.078;15.536;2022-12-29T04:40:41;-3.40;99.90
29687;DHT22;16599;47.078;15.536;2022-12-29T04:43:09;-3.30;99.90
29687;DHT22;16599;47.078;15.536;2022-12-29T04:45:37;-3.30;99.90
29687;DHT22;16599;47.078;15.536;2022-12-29T04:48:04;-3.20;99.90
29687;DHT22;16599;47.078;15.536;2022-12-29T04:50:31;-3.10;99.90
29687;DHT22;16599;47.078;15.536;2022-12-29T04:52:58;-3.00;99.90
29687;DHT22;16599;47.078;15.536;2022-12-29T04:55:25;-2.90;99.90
29687;DHT22;16599;47.078;15.536;2022-12-29T04:57:51;-3.20;99.90
29687;DHT22;16599;47.078;15.536;2022-12-29T05:00:18;-3.30;99.90
29687;DHT22;16599;47.078;15.536;2022-12-29T05:02:45;-3.50;99.90
29687;DHT22;16599;47.078;15.536;2022-12-29T05:05:12;-3.60;99.90
29687;DHT22;16599;47.078;15.536;2022-12-29T05:07:40;-3.50;99.90
29687;DHT22;16599;47.078;15.536;2022-12-29T05:10:07;-3.50;99.90
29687;DHT22;16599;47.078;15.536;2022-12-29T05:12:36;-3.60;99.90
29687;DHT22;16599;47.078;15.536;2022-12-29T05:15:05;-3.30;99.90
29687;DHT22;16599;47.078;15.536;2022-12-29T05:17:33;-3.30;99.90
29687;DHT22;16599;47.078;15.536;2022-12-29T05:20:00;-3.50;99.90
29687;DHT22;16599;47.078;15.536;2022-12-29T05:22:27;-3.40;99.90
29687;DHT22;16599;47.078;15.536;2022-12-29T05:24:54;-3.40;99.90
29687;DHT22;16599;47.078;15.536;2022-12-29T05:27:20;-3.40;99.90
29687;DHT22;16599;47.078;15.536;2022-12-29T05:29:47;-3.60;99.90
29687;DHT22;16599;47.078;15.536;2022-12-29T05:32:14;-3.50;99.90
29687;DHT22;16599;47.078;15.536;2022-12-29T05:34:41;-3.40;99.90
29687;DHT22;16599;47.078;15.536;2022-12-29T05:37:08;-3.60;99.90
29687;DHT22;16599;47.078;15.536;2022-12-29T05:39:34;-3.60;99.90
29687;DHT22;16599;47.078;15.536;2022-12-29T05:42:01;-3.60;99.90
29687;DHT22;16599;47.078;15.536;2022-12-29T05:44:28;-3.60;99.90
29687;DHT22;16599;47.078;15.536;2022-12-29T05:46:55;-3.30;99.90
29687;DHT22;16599;47.078;15.536;2022-12-29T05:49:22;-3.10;99.90
29687;DHT22;16599;47.078;15.536;2022-12-29T05:51:49;-3.20;99.90
29687;DHT22;16599;47.078;15.536;2022-12-29T05:54:16;-3.30;99.90
29687;DHT22;16599;47.078;15.536;2022-12-29T05:56:42;-3.70;99.90
29687;DHT22;16599;47.078;15.536;2022-12-29T05:59:09;-3.70;99.90
29687;DHT22;16599;47.078;15.536;2022-12-29T06:01:36;-3.70;99.90
29687;DHT22;16599;47.078;15.536;2022-12-29T06:04:03;-3.60;99.90
29687;DHT22;16599;47.078;15.536;2022-12-29T06:06:30;-3.50;99.90
29687;DHT22;16599;47.078;15.536;2022-12-29T06:08:57;-3.50;99.90
29687;DHT22;16599;47.078;15.536;2022-12-29T06:11:24;-3.70;99.90
29687;DHT22;16599;47.078;15.536;2022-12-29T06:13:50;-3.70;99.90
29687;DHT22;16599;47.078;15.536;2022-12-29T06:16:17;-3.80;99.90
29687;DHT22;16599;47.078;15.536;2022-12-29T06:18:45;-3.90;99.90
29687;DHT22;16599;47.078;15.536;2022-12-29T06:21:12;-3.80;99.90
29687;DHT22;16599;47.078;15.536;2022-12-29T06:23:39;-3.50;99.90
29687;DHT22;16599;47.078;15.536;2022-12-29T06:26:06;-3.50;99.90
29687;DHT22;16599;47.078;15.536;2022-12-29T06:28:33;-3.70;99.90
29687;DHT22;16599;47.078;15.536;2022-12-29T06:31:00;-3.90;99.90
29687;DHT22;16599;47.078;15.536;2022-12-29T06:33:29;-3.90;99.90
29687;DHT22;16599;47.078;15.536;2022-12-29T06:35:56;-4.00;99.90
29687;DHT22;16599;47.078;15.536;2022-12-29T06:38:23;-3.90;99.90
29687;DHT22;16599;47.078;15.536;2022-12-29T06:40:50;-3.80;99.90
29687;DHT22;16599;47.078;15.536;2022-12-29T06:43:17;-3.80;99.90
29687;DHT22;16599;47.078;15.536;2022-12-29T06:45:43;-3.90;99.90
29687;DHT22;16599;47.078;15.536;2022-12-29T06:48:10;-3.80;99.90
29687;DHT22;16599;47.078;15.536;2022-12-29T06:50:37;-3.70;99.90
29687;DHT22;16599;47.078;15.536;2022-12-29T06:53:04;-3.60;99.90
29687;DHT22;16599;47.078;15.536;2022-12-29T06:55:31;-3.60;99.90
29687;DHT22;16599;47.078;15.536;2022-12-29T06:57:58;-3.70;99.90
29687;DHT22;16599;47.078;15.536;2022-12-29T07:00:25;-3.70;99.90
29687;DHT22;16599;47.078;15.536;2022-12-29T07:02:52;-3.60;99.90
29687;DHT22;16599;47.078;15.536;2022-12-29T07:05:20;-3.40;99.90
29687;DHT22;16599;47.078;15.536;2022-12-29T07:07:47;-3.70;99.90
29687;DHT22;16599;47.078;15.536;2022-12-29T07:10:14;-3.60;99.90
29687;DHT22;16599;47.078;15.536;2022-12-29T07:12:41;-3.50;99.90
29687;DHT22;16599;47.078;15.536;2022-12-29T07:15:08;-3.50;99.90
29687;DHT22;16599;47.078;15.536;2022-12-29T07:17:35;-3.50;99.90
29687;DHT22;16599;47.078;15.536;2022-12-29T07:20:02;-3.40;99.90
29687;DHT22;16599;47.078;15.536;2022-12-29T07:22:29;-3.40;99.90
29687;DHT22;16599;47.078;15.536;2022-12-29T07:24:56;-3.40;99.90
29687;DHT22;16599;47.078;15.536;2022-12-29T07:27:23;-3.30;99.90
29687;DHT22;16599;47.078;15.536;2022-12-29T07:29:49;-3.30;99.90
29687;DHT22;16599;47.078;15.536;2022-12-29T07:32:16;-3.50;99.90
29687;DHT22;16599;47.078;15.536;2022-12-29T07:34:43;-3.60;99.90
29687;DHT22;16599;47.078;15.536;2022-12-29T07:37:11;-3.40;99.90
29687;DHT22;16599;47.078;15.536;2022-12-29T07:39:38;-3.40;99.90
29687;DHT22;16599;47.078;15.536;2022-12-29T07:42:05;-3.40;99.90
29687;DHT22;16599;47.078;15.536;2022-12-29T07:44:32;-3.30;99.90
29687;DHT22;16599;47.078;15.536;2022-12-29T07:46:59;-3.20;99.90
29687;DHT22;16599;47.078;15.536;2022-12-29T07:49:27;-3.20;99.90
29687;DHT22;16599;47.078;15.536;2022-12-29T07:51:54;-3.20;99.90
29687;DHT22;16599;47.078;15.536;2022-12-29T07:54:21;-3.10;99.90
29687;DHT22;16599;47.078;15.536;2022-12-29T07:56:49;-3.00;99.90
29687;DHT22;16599;47.078;15.536;2022-12-29T07:59:17;-3.00;99.90
29687;DHT22;16599;47.078;15.536;2022-12-29T08:01:44;-3.00;99.90
29687;DHT22;16599;47.078;15.536;2022-12-29T08:04:11;-2.90;99.90
29687;DHT22;16599;47.078;15.536;2022-12-29T08:06:38;-2.90;99.90
29687;DHT22;16599;47.078;15.536;2022-12-29T08:09:05;-2.90;99.90
29687;DHT22;16599;47.078;15.536;2022-12-29T08:11:43;-3.00;99.90
29687;DHT22;16599;47.078;15.536;2022-12-29T08:14:10;-2.90;99.90
29687;DHT22;16599;47.078;15.536;2022-12-29T08:16:37;-2.80;99.90
29687;DHT22;16599;47.078;15.536;2022-12-29T08:19:04;-2.70;99.90
29687;DHT22;16599;47.078;15.536;2022-12-29T08:21:31;-2.70;99.90
29687;DHT22;16599;47.078;15.536;2022-12-29T08:23:58;-2.50;99.90
29687;DHT22;16599;47.078;15.536;2022-12-29T08:26:25;-2.50;99.90
29687;DHT22;16599;47.078;15.536;2022-12-29T08:28:53;-2.30;99.90
29687;DHT22;16599;47.078;15.536;2022-12-29T08:31:21;-2.20;99.90
29687;DHT22;16599;47.078;15.536;2022-12-29T08:33:48;-2.10;99.90
29687;DHT22;16599;47.078;15.536;2022-12-29T08:36:14;-2.10;99.90
29687;DHT22;16599;47.078;15.536;2022-12-29T08:38:41;-1.90;99.90
29687;DHT22;16599;47.078;15.536;2022-12-29T08:41:08;-1.70;99.90
29687;DHT22;16599;47.078;15.536;2022-12-29T08:43:35;-1.50;99.90
29687;DHT22;16599;47.078;15.536;2022-12-29T08:46:02;-1.60;99.90
29687;DHT22;16599;47.078;15.536;2022-12-29T08:48:29;-1.60;99.90
29687;DHT22;16599;47.078;15.536;2022-12-29T08:50:56;-1.40;99.90
29687;DHT22;16599;47.078;15.536;2022-12-29T08:53:22;-1.20;99.90
29687;DHT22;16599;47.078;15.536;2022-12-29T08:55:56;-1.10;99.90
29687;DHT22;16599;47.078;15.536;2022-12-29T08:58:30;-0.90;99.90
29687;DHT22;16599;47.078;15.536;2022-12-29T09:00:58;-0.90;99.90
29687;DHT22;16599;47.078;15.536;2022-12-29T09:03:25;-0.90;99.90
29687;DHT22;16599;47.078;15.536;2022-12-29T09:06:13;-0.70;99.90
29687;DHT22;16599;47.078;15.536;2022-12-29T09:08:40;-0.60;99.90
29687;DHT22;16599;47.078;15.536;2022-12-29T09:11:14;-0.50;99.90
29687;DHT22;16599;47.078;15.536;2022-12-29T09:13:41;-0.30;99.90
29687;DHT22;16599;47.078;15.536;2022-12-29T09:16:08;-0.10;99.90
29687;DHT22;16599;47.078;15.536;2022-12-29T09:18:36;0.20;99.90
29687;DHT22;16599;47.078;15.536;2022-12-29T09:21:04;0.30;99.90
29687;DHT22;16599;47.078;15.536;2022-12-29T09:23:32;0.50;99.90
29687;DHT22;16599;47.078;15.536;2022-12-29T09:26:00;0.90;99.90
29687;DHT22;16599;47.078;15.536;2022-12-29T09:28:27;1.20;99.90
29687;DHT22;16599;47.078;15.536;2022-12-29T09:30:56;1.30;99.90
29687;DHT22;16599;47.078;15.536;2022-12-29T09:33:23;1.80;99.90
29687;DHT22;16599;47.078;15.536;2022-12-29T09:35:53;2.20;99.90
29687;DHT22;16599;47.078;15.536;2022-12-29T09:38:20;2.30;99.90
29687;DHT22;16599;47.078;15.536;2022-12-29T09:40:53;2.50;99.90
29687;DHT22;16599;47.078;15.536;2022-12-29T09:51:39;3.20;99.90
29687;DHT22;16599;47.078;15.536;2022-12-29T09:57:34;3.70;99.90
29687;DHT22;16599;47.078;15.536;2022-12-29T10:00:22;3.90;99.90
29687;DHT22;16599;47.078;15.536;2022-12-29T10:02:50;4.00;99.90
29687;DHT22;16599;47.078;15.536;2022-12-29T10:08:13;4.40;99.90
29687;DHT22;16599;47.078;15.536;2022-12-29T10:11:07;4.50;99.90
29687;DHT22;16599;47.078;15.536;2022-12-29T10:13:52;4.60;99.90
29687;DHT22;16599;47.078;15.536;2022-12-29T10:21:53;5.30;99.90
29687;DHT22;16599;47.078;15.536;2022-12-29T10:24:22;5.30;99.90
29687;DHT22;16599;47.078;15.536;2022-12-29T10:26:51;5.50;99.90
29687;DHT22;16599;47.078;15.536;2022-12-29T10:29:24;5.90;99.80
29687;DHT22;16599;47.078;15.536;2022-12-29T10:32:05;6.00;99.90
29687;DHT22;16599;47.078;15.536;2022-12-29T10:34:45;6.00;99.90
29687;DHT22;16599;47.078;15.536;2022-12-29T10:39:50;5.60;99.90
29687;DHT22;16599;47.078;15.536;2022-12-29T10:44:58;5.50;99.90
29687;DHT22;16599;47.078;15.536;2022-12-29T10:47:29;5.60;99.90
29687;DHT22;16599;47.078;15.536;2022-12-29T10:49:57;5.80;99.90
29687;DHT22;16599;47.078;15.536;2022-12-29T10:52:26;5.90;99.90
29687;DHT22;16599;47.078;15.536;2022-12-29T10:55:05;6.10;99.90
29687;DHT22;16599;47.078;15.536;2022-12-29T10:57:37;6.10;99.90
29687;DHT22;16599;47.078;15.536;2022-12-29T11:00:21;6.30;99.90
29687;DHT22;16599;47.078;15.536;2022-12-29T11:08:19;6.60;98.80
29687;DHT22;16599;47.078;15.536;2022-12-29T11:11:00;6.70;98.20
29687;DHT22;16599;47.078;15.536;2022-12-29T11:13:30;6.90;98.30
29687;DHT22;16599;47.078;15.536;2022-12-29T11:16:04;6.70;98.30
29687;DHT22;16599;47.078;15.536;2022-12-29T11:18:38;6.90;97.40
29687;DHT22;16599;47.078;15.536;2022-12-29T11:24:05;7.10;96.80
29687;DHT22;16599;47.078;15.536;2022-12-29T11:26:32;7.20;96.30
29687;DHT22;16599;47.078;15.536;2022-12-29T11:31:58;7.50;95.40
29687;DHT22;16599;47.078;15.536;2022-12-29T11:34:35;7.40;95.50
29687;DHT22;16599;47.078;15.536;2022-12-29T11:37:04;7.40;95.30
29687;DHT22;16599;47.078;15.536;2022-12-29T11:39:38;7.50;95.30
29687;DHT22;16599;47.078;15.536;2022-12-29T11:42:12;7.70;94.80
29687;DHT22;16599;47.078;15.536;2022-12-29T11:44:44;7.70;95.10
29687;DHT22;16599;47.078;15.536;2022-12-29T11:47:21;7.80;95.10
29687;DHT22;16599;47.078;15.536;2022-12-29T11:49:50;7.90;93.60
29687;DHT22;16599;47.078;15.536;2022-12-29T11:52:25;7.90;93.30
29687;DHT22;16599;47.078;15.536;2022-12-29T11:54:54;7.90;94.90
29687;DHT22;16599;47.078;15.536;2022-12-29T11:57:23;8.10;93.20
29687;DHT22;16599;47.078;15.536;2022-12-29T11:59:54;8.20;94.10
29687;DHT22;16599;47.078;15.536;2022-12-29T12:10:55;8.20;92.60
29687;DHT22;16599;47.078;15.536;2022-12-29T12:13:29;8.40;92.10
29687;DHT22;16599;47.078;15.536;2022-12-29T12:21:10;8.40;92.00
29687;DHT22;16599;47.078;15.536;2022-12-29T12:24:00;8.50;90.80
29687;DHT22;16599;47.078;15.536;2022-12-29T12:26:40;8.50;91.60
29687;DHT22;16599;47.078;15.536;2022-12-29T12:29:14;8.50;91.70
29687;DHT22;16599;47.078;15.536;2022-12-29T12:31:59;8.70;90.60
29687;DHT22;16599;47.078;15.536;2022-12-29T12:34:41;8.70;91.20
29687;DHT22;16599;47.078;15.536;2022-12-29T12:45:32;8.90;90.50
29687;DHT22;16599;47.078;15.536;2022-12-29T12:53:47;9.10;91.50
29687;DHT22;16599;47.078;15.536;2022-12-29T13:01:42;9.10;91.00
29687;DHT22;16599;47.078;15.536;2022-12-29T13:07:38;9.20;89.70
29687;DHT22;16599;47.078;15.536;2022-12-29T13:32:16;8.70;89.90
29687;DHT22;16599;47.078;15.536;2022-12-29T13:37:35;8.70;88.50
29687;DHT22;16599;47.078;15.536;2022-12-29T13:40:14;8.60;90.50
29687;DHT22;16599;47.078;15.536;2022-12-29T13:42:43;8.50;90.40
29687;DHT22;16599;47.078;15.536;2022-12-29T13:45:20;8.20;91.00
29687;DHT22;16599;47.078;15.536;2022-12-29T13:50:36;7.70;91.90
29687;DHT22;16599;47.078;15.536;2022-12-29T13:53:35;7.90;92.00
29687;DHT22;16599;47.078;15.536;2022-12-29T13:56:11;7.70;91.90
29687;DHT22;16599;47.078;15.536;2022-12-29T13:58:54;7.30;93.20
29687;DHT22;16599;47.078;15.536;2022-12-29T14:01:33;7.20;93.40
29687;DHT22;16599;47.078;15.536;2022-12-29T14:04:12;7.00;93.60
29687;DHT22;16599;47.078;15.536;2022-12-29T14:06:40;6.90;94.00
29687;DHT22;16599;47.078;15.536;2022-12-29T14:09:45;6.90;94.00
29687;DHT22;16599;47.078;15.536;2022-12-29T14:13:02;6.80;94.50
29687;DHT22;16599;47.078;15.536;2022-12-29T14:17:40;6.60;94.20
29687;DHT22;16599;47.078;15.536;2022-12-29T14:20:18;6.60;95.10
29687;DHT22;16599;47.078;15.536;2022-12-29T14:28:39;6.00;97.00
29687;DHT22;16599;47.078;15.536;2022-12-29T14:36:39;5.60;97.10
29687;DHT22;16599;47.078;15.536;2022-12-29T14:39:35;5.20;98.30
29687;DHT22;16599;47.078;15.536;2022-12-29T14:44:49;5.10;99.50
29687;DHT22;16599;47.078;15.536;2022-12-29T14:47:37;5.10;99.40
29687;DHT22;16599;47.078;15.536;2022-12-29T14:52:55;4.70;99.90
29687;DHT22;16599;47.078;15.536;2022-12-29T14:55:55;4.30;99.40
29687;DHT22;16599;47.078;15.536;2022-12-29T14:58:43;3.80;99.90
29687;DHT22;16599;47.078;15.536;2022-12-29T15:04:31;4.10;99.90
29687;DHT22;16599;47.078;15.536;2022-12-29T15:07:01;3.70;99.90
29687;DHT22;16599;47.078;15.536;2022-12-29T15:14:56;3.30;99.90
29687;DHT22;16599;47.078;15.536;2022-12-29T15:17:29;3.30;99.90
29687;DHT22;16599;47.078;15.536;2022-12-29T15:20:01;3.30;99.90
29687;DHT22;16599;47.078;15.536;2022-12-29T15:22:44;2.90;99.90
29687;DHT22;16599;47.078;15.536;2022-12-29T15:25:16;3.30;99.90
29687;DHT22;16599;47.078;15.536;2022-12-29T15:27:50;3.00;99.90
29687;DHT22;16599;47.078;15.536;2022-12-29T15:30:19;2.40;99.90
29687;DHT22;16599;47.078;15.536;2022-12-29T15:32:48;2.60;99.90
29687;DHT22;16599;47.078;15.536;2022-12-29T15:37:57;2.60;99.90
29687;DHT22;16599;47.078;15.536;2022-12-29T15:40:29;2.70;99.90
29687;DHT22;16599;47.078;15.536;2022-12-29T15:43:33;2.30;99.90
29687;DHT22;16599;47.078;15.536;2022-12-29T15:46:18;2.20;99.90
29687;DHT22;16599;47.078;15.536;2022-12-29T15:48:47;2.00;99.90
29687;DHT22;16599;47.078;15.536;2022-12-29T15:51:30;2.10;99.90
29687;DHT22;16599;47.078;15.536;2022-12-29T15:54:00;2.00;99.90
29687;DHT22;16599;47.078;15.536;2022-12-29T15:56:31;1.50;99.90
29687;DHT22;16599;47.078;15.536;2022-12-29T15:59:00;2.00;99.90
29687;DHT22;16599;47.078;15.536;2022-12-29T16:01:31;1.90;99.90
29687;DHT22;16599;47.078;15.536;2022-12-29T16:04:06;2.00;99.90
29687;DHT22;16599;47.078;15.536;2022-12-29T16:06:44;2.10;99.90
29687;DHT22;16599;47.078;15.536;2022-12-29T16:09:17;2.20;99.90
29687;DHT22;16599;47.078;15.536;2022-12-29T16:11:55;2.30;99.90
29687;DHT22;16599;47.078;15.536;2022-12-29T16:14:41;2.40;99.90
29687;DHT22;16599;47.078;15.536;2022-12-29T16:17:13;2.20;99.90
29687;DHT22;16599;47.078;15.536;2022-12-29T16:19:49;1.80;99.90
29687;DHT22;16599;47.078;15.536;2022-12-29T16:22:30;1.80;99.90
29687;DHT22;16599;47.078;15.536;2022-12-29T16:27:43;1.30;99.90
29687;DHT22;16599;47.078;15.536;2022-12-29T16:30:19;1.20;99.90
29687;DHT22;16599;47.078;15.536;2022-12-29T16:32:56;1.20;99.90
29687;DHT22;16599;47.078;15.536;2022-12-29T16:35:29;1.30;99.90
29687;DHT22;16599;47.078;15.536;2022-12-29T16:38:20;1.20;99.90
29687;DHT22;16599;47.078;15.536;2022-12-29T16:40:59;1.30;99.90
29687;DHT22;16599;47.078;15.536;2022-12-29T16:43:33;1.40;99.90
29687;DHT22;16599;47.078;15.536;2022-12-29T16:46:21;1.40;99.90
29687;DHT22;16599;47.078;15.536;2022-12-29T16:48:54;1.00;99.90
29687;DHT22;16599;47.078;15.536;2022-12-29T16:51:33;1.00;99.90
29687;DHT22;16599;47.078;15.536;2022-12-29T16:54:03;0.80;99.90
29687;DHT22;16599;47.078;15.536;2022-12-29T16:56:33;0.90;99.90
29687;DHT22;16599;47.078;15.536;2022-12-29T16:59:25;1.00;99.90
29687;DHT22;16599;47.078;15.536;2022-12-29T17:01:52;0.50;99.90
29687;DHT22;16599;47.078;15.536;2022-12-29T17:04:22;0.90;99.90
29687;DHT22;16599;47.078;15.536;2022-12-29T17:06:49;0.50;99.90
29687;DHT22;16599;47.078;15.536;2022-12-29T17:09:22;0.30;99.90
29687;DHT22;16599;47.078;15.536;2022-12-29T17:11:52;0.60;99.90
29687;DHT22;16599;47.078;15.536;2022-12-29T17:14:48;0.60;99.90
29687;DHT22;16599;47.078;15.536;2022-12-29T17:17:55;0.30;99.90
29687;DHT22;16599;47.078;15.536;2022-12-29T17:20:24;0.30;99.90
29687;DHT22;16599;47.078;15.536;2022-12-29T17:22:52;0.40;99.90
29687;DHT22;16599;47.078;15.536;2022-12-29T17:28:03;0.50;99.90
29687;DHT22;16599;47.078;15.536;2022-12-29T17:30:32;0.70;99.90
29687;DHT22;16599;47.078;15.536;2022-12-29T17:33:05;0.30;99.90
29687;DHT22;16599;47.078;15.536;2022-12-29T17:35:35;0.30;99.90
29687;DHT22;16599;47.078;15.536;2022-12-29T17:38:01;0.30;99.90
29687;DHT22;16599;47.078;15.536;2022-12-29T17:40:31;0.40;99.90
29687;DHT22;16599;47.078;15.536;2022-12-29T17:42:59;0.30;99.90
29687;DHT22;16599;47.078;15.536;2022-12-29T17:45:29;0.20;99.90
29687;DHT22;16599;47.078;15.536;2022-12-29T17:47:57;0.40;99.90
29687;DHT22;16599;47.078;15.536;2022-12-29T17:50:28;0.40;99.90
29687;DHT22;16599;47.078;15.536;2022-12-29T17:52:59;0.40;99.90
29687;DHT22;16599;47.078;15.536;2022-12-29T17:55:28;0.20;99.90
29687;DHT22;16599;47.078;15.536;2022-12-29T18:00:43;0.30;99.90
29687;DHT22;16599;47.078;15.536;2022-12-29T18:03:18;0.20;99.90
29687;DHT22;16599;47.078;15.536;2022-12-29T18:05:47;0.10;99.90
29687;DHT22;16599;47.078;15.536;2022-12-29T18:08:15;0.10;99.90
29687;DHT22;16599;47.078;15.536;2022-12-29T18:10:42;0.00;99.90
29687;DHT22;16599;47.078;15.536;2022-12-29T18:13:28;-0.20;99.90
29687;DHT22;16599;47.078;15.536;2022-12-29T18:16:11;0.00;99.90
29687;DHT22;16599;47.078;15.536;2022-12-29T18:18:38;0.00;99.90
29687;DHT22;16599;47.078;15.536;2022-12-29T18:21:05;0.00;99.90
29687;DHT22;16599;47.078;15.536;2022-12-29T18:23:32;-0.10;99.90
29687;DHT22;16599;47.078;15.536;2022-12-29T18:26:09;0.00;99.90
29687;DHT22;16599;47.078;15.536;2022-12-29T18:28:37;-0.20;99.90
29687;DHT22;16599;47.078;15.536;2022-12-29T18:31:15;-0.30;99.90
29687;DHT22;16599;47.078;15.536;2022-12-29T18:33:42;-0.20;99.90
29687;DHT22;16599;47.078;15.536;2022-12-29T18:36:10;-0.20;99.90
29687;DHT22;16599;47.078;15.536;2022-12-29T18:38:37;-0.20;99.90